sensor_id;sensor_type;location;lat;lon;timestamp;temperature;humidity
17697;DHT22;8967;47.984;7.842;2023-05-10T00:01:17;15.80;99.90
17697;DHT22;8967;47.984;7.842;2023-05-10T00:03:44;15.90;99.90
17697;DHT22;8967;47.984;7.842;2023-05-10T00:06:12;15.80;99.90
17697;DHT22;8967;47.984;7.842;2023-05-10T00:08:42;15.80;99.90
17697;DHT22;8967;47.984;7.842;2023-05-10T00:11:09;15.80;99.90
17697;DHT22;8967;47.984;7.842;2023-05-10T00:13:35;15.80;99.90
17697;DHT22;8967;47.984;7.842;2023-05-10T00:16:05;15.80;99.90
17697;DHT22;8967;47.984;7.842;2023-05-10T00:18:34;15.80;99.90
17697;DHT22;8967;47.984;7.842;2023-05-10T00:21:01;15.80;99.90
17697;DHT22;8967;47.984;7.842;2023-05-10T00:23:29;15.80;99.90
17697;DHT22;8967;47.984;7.842;2023-05-10T00:25:56;15.80;99.90
17697;DHT22;8967;47.984;7.842;2023-05-10T00:28:24;15.80;99.90
17697;DHT22;8967;47.984;7.842;2023-05-10T00:30:51;15.70;99.90
17697;DHT22;8967;47.984;7.842;2023-05-10T00:33:17;15.70;99.90
17697;DHT22;8967;47.984;7.842;2023-05-10T00:35:44;15.70;99.90
17697;DHT22;8967;47.984;7.842;2023-05-10T00:38:11;15.70;99.90
17697;DHT22;8967;47.984;7.842;2023-05-10T00:40:39;15.70;99.90
17697;DHT22;8967;47.984;7.842;2023-05-10T00:43:13;15.70;99.90
17697;DHT22;8967;47.984;7.842;2023-05-10T00:45:43;15.70;99.90
17697;DHT22;8967;47.984;7.842;2023-05-10T00:48:11;15.70;99.90
17697;DHT22;8967;47.984;7.842;2023-05-10T00:50:38;15.70;99.90
17697;DHT22;8967;47.984;7.842;2023-05-10T00:53:05;15.70;99.90
17697;DHT22;8967;47.984;7.842;2023-05-10T00:55:35;15.70;99.90
17697;DHT22;8967;47.984;7.842;2023-05-10T00:58:06;15.70;99.90
17697;DHT22;8967;47.984;7.842;2023-05-10T01:00:33;15.70;99.90
17697;DHT22;8967;47.984;7.842;2023-05-10T01:03:03;15.60;99.90
17697;DHT22;8967;47.984;7.842;2023-05-10T01:05:29;15.60;99.90
17697;DHT22;8967;47.984;7.842;2023-05-10T01:07:57;15.60;99.90
17697;DHT22;8967;47.984;7.842;2023-05-10T01:10:24;15.60;99.90
17697;DHT22;8967;47.984;7.842;2023-05-10T01:12:51;15.60;99.90
17697;DHT22;8967;47.984;7.842;2023-05-10T01:15:22;15.60;99.90
17697;DHT22;8967;47.984;7.842;2023-05-10T01:17:49;15.60;99.90
17697;DHT22;8967;47.984;7.842;2023-05-10T01:20:18;15.50;99.90
17697;DHT22;8967;47.984;7.842;2023-05-10T01:23:09;15.50;99.90
17697;DHT22;8967;47.984;7.842;2023-05-10T01:28:58;15.50;99.90
17697;DHT22;8967;47.984;7.842;2023-05-10T01:34:47;15.50;99.90
17697;DHT22;8967;47.984;7.842;2023-05-10T01:37:20;15.50;99.90
17697;DHT22;8967;47.984;7.842;2023-05-10T01:39:53;15.50;99.90
17697;DHT22;8967;47.984;7.842;2023-05-10T01:42:26;15.50;99.90
17697;DHT22;8967;47.984;7.842;2023-05-10T01:45:02;15.50;99.90
17697;DHT22;8967;47.984;7.842;2023-05-10T01:47:37;15.50;99.90
17697;DHT22;8967;47.984;7.842;2023-05-10T01:50:10;15.50;99.90
17697;DHT22;8967;47.984;7.842;2023-05-10T01:52:42;15.40;99.90
17697;DHT22;8967;47.984;7.842;2023-05-10T01:55:13;15.40;99.90
17697;DHT22;8967;47.984;7.842;2023-05-10T01:57:43;15.40;99.90
17697;DHT22;8967;47.984;7.842;2023-05-10T02:00:12;15.50;99.90
17697;DHT22;8967;47.984;7.842;2023-05-10T02:02:42;15.40;99.90
17697;DHT22;8967;47.984;7.842;2023-05-10T02:05:14;15.50;99.90
17697;DHT22;8967;47.984;7.842;2023-05-10T02:07:42;15.40;99.90
17697;DHT22;8967;47.984;7.842;2023-05-10T02:10:10;15.50;99.90
17697;DHT22;8967;47.984;7.842;2023-05-10T02:12:41;15.40;99.90
17697;DHT22;8967;47.984;7.842;2023-05-10T02:15:10;15.50;99.90
17697;DHT22;8967;47.984;7.842;2023-05-10T02:17:39;15.40;99.90
17697;DHT22;8967;47.984;7.842;2023-05-10T02:20:08;15.40;99.90
17697;DHT22;8967;47.984;7.842;2023-05-10T02:22:42;15.40;99.90
17697;DHT22;8967;47.984;7.842;2023-05-10T02:25:14;15.40;99.90
17697;DHT22;8967;47.984;7.842;2023-05-10T02:27:42;15.40;99.90
17697;DHT22;8967;47.984;7.842;2023-05-10T02:30:10;15.40;99.90
17697;DHT22;8967;47.984;7.842;2023-05-10T02:32:37;15.40;99.90
17697;DHT22;8967;47.984;7.842;2023-05-10T02:35:06;15.40;99.90
17697;DHT22;8967;47.984;7.842;2023-05-10T02:37:35;15.40;99.90
17697;DHT22;8967;47.984;7.842;2023-05-10T02:40:06;15.30;99.90
17697;DHT22;8967;47.984;7.842;2023-05-10T02:42:36;15.30;99.90
17697;DHT22;8967;47.984;7.842;2023-05-10T02:45:08;15.40;99.90
17697;DHT22;8967;47.984;7.842;2023-05-10T02:47:39;15.30;99.90
17697;DHT22;8967;47.984;7.842;2023-05-10T02:50:07;15.30;99.90
17697;DHT22;8967;47.984;7.842;2023-05-10T02:52:39;15.30;99.90
17697;DHT22;8967;47.984;7.842;2023-05-10T02:55:11;15.30;99.90
17697;DHT22;8967;47.984;7.842;2023-05-10T02:57:43;15.30;99.90
17697;DHT22;8967;47.984;7.842;2023-05-10T03:00:11;15.30;99.90
17697;DHT22;8967;47.984;7.842;2023-05-10T03:02:38;15.30;99.90
17697;DHT22;8967;47.984;7.842;2023-05-10T03:05:05;15.30;99.90
17697;DHT22;8967;47.984;7.842;2023-05-10T03:07:34;15.30;99.90
17697;DHT22;8967;47.984;7.842;2023-05-10T03:10:02;15.30;99.90
17697;DHT22;8967;47.984;7.842;2023-05-10T03:12:44;15.30;99.90
17697;DHT22;8967;47.984;7.842;2023-05-10T03:15:19;15.30;99.90
17697;DHT22;8967;47.984;7.842;2023-05-10T03:17:55;15.30;99.90
17697;DHT22;8967;47.984;7.842;2023-05-10T03:20:25;15.30;99.90
17697;DHT22;8967;47.984;7.842;2023-05-10T03:22:57;15.30;99.90
17697;DHT22;8967;47.984;7.842;2023-05-10T03:25:29;15.20;99.90
17697;DHT22;8967;47.984;7.842;2023-05-10T03:28:04;15.20;99.90
17697;DHT22;8967;47.984;7.842;2023-05-10T03:30:33;15.20;99.90
17697;DHT22;8967;47.984;7.842;2023-05-10T03:33:04;15.20;99.90
17697;DHT22;8967;47.984;7.842;2023-05-10T03:35:31;15.20;99.90
17697;DHT22;8967;47.984;7.842;2023-05-10T03:37:58;15.20;99.90
17697;DHT22;8967;47.984;7.842;2023-05-10T03:40:26;15.20;99.90
17697;DHT22;8967;47.984;7.842;2023-05-10T03:42:54;15.20;99.90
17697;DHT22;8967;47.984;7.842;2023-05-10T03:45:22;15.20;99.90
17697;DHT22;8967;47.984;7.842;2023-05-10T03:47:49;15.20;99.90
17697;DHT22;8967;47.984;7.842;2023-05-10T03:50:16;15.20;99.90
17697;DHT22;8967;47.984;7.842;2023-05-10T03:52:47;15.20;99.90
17697;DHT22;8967;47.984;7.842;2023-05-10T03:55:14;15.20;99.90
17697;DHT22;8967;47.984;7.842;2023-05-10T03:57:41;15.10;99.90
17697;DHT22;8967;47.984;7.842;2023-05-10T04:00:09;15.20;99.90
17697;DHT22;8967;47.984;7.842;2023-05-10T04:02:44;15.10;99.90
17697;DHT22;8967;47.984;7.842;2023-05-10T04:05:16;15.10;99.90
17697;DHT22;8967;47.984;7.842;2023-05-10T04:07:42;15.10;99.90
17697;DHT22;8967;47.984;7.842;2023-05-10T04:10:11;15.10;99.90
17697;DHT22;8967;47.984;7.842;2023-05-10T04:12:40;15.10;99.90
17697;DHT22;8967;47.984;7.842;2023-05-10T04:15:08;15.10;99.90
17697;DHT22;8967;47.984;7.842;2023-05-10T04:17:35;15.00;99.90
17697;DHT22;8967;47.984;7.842;2023-05-10T04:20:06;15.00;99.90
17697;DHT22;8967;47.984;7.842;2023-05-10T04:22:34;15.00;99.90
17697;DHT22;8967;47.984;7.842;2023-05-10T04:25:00;15.00;99.90
17697;DHT22;8967;47.984;7.842;2023-05-10T04:27:27;15.00;99.90
17697;DHT22;8967;47.984;7.842;2023-05-10T04:29:54;14.90;99.90
17697;DHT22;8967;47.984;7.842;2023-05-10T04:32:23;14.90;99.90
17697;DHT22;8967;47.984;7.842;2023-05-10T04:34:50;14.90;99.90
17697;DHT22;8967;47.984;7.842;2023-05-10T04:37:18;14.90;99.90
17697;DHT22;8967;47.984;7.842;2023-05-10T04:39:46;14.90;99.90
17697;DHT22;8967;47.984;7.842;2023-05-10T04:42:16;14.90;99.90
17697;DHT22;8967;47.984;7.842;2023-05-10T04:44:43;14.90;99.90
17697;DHT22;8967;47.984;7.842;2023-05-10T04:47:09;14.90;99.90
17697;DHT22;8967;47.984;7.842;2023-05-10T04:49:38;14.90;99.90
17697;DHT22;8967;47.984;7.842;2023-05-10T04:52:07;14.90;99.90
17697;DHT22;8967;47.984;7.842;2023-05-10T04:54:35;14.90;99.90
17697;DHT22;8967;47.984;7.842;2023-05-10T04:57:02;14.90;99.90
17697;DHT22;8967;47.984;7.842;2023-05-10T04:59:29;14.90;99.90
17697;DHT22;8967;47.984;7.842;2023-05-10T05:01:56;14.90;99.90
17697;DHT22;8967;47.984;7.842;2023-05-10T05:04:23;14.90;99.90
17697;DHT22;8967;47.984;7.842;2023-05-10T05:06:50;14.90;99.90
17697;DHT22;8967;47.984;7.842;2023-05-10T05:09:17;14.90;99.90
17697;DHT22;8967;47.984;7.842;2023-05-10T05:11:45;14.90;99.90
17697;DHT22;8967;47.984;7.842;2023-05-10T05:14:12;14.90;99.90
17697;DHT22;8967;47.984;7.842;2023-05-10T05:16:39;15.00;99.90
17697;DHT22;8967;47.984;7.842;2023-05-10T05:19:06;14.90;99.90
17697;DHT22;8967;47.984;7.842;2023-05-10T05:21:33;14.90;99.90
17697;DHT22;8967;47.984;7.842;2023-05-10T05:24:00;15.00;99.90
17697;DHT22;8967;47.984;7.842;2023-05-10T05:26:29;15.00;99.90
17697;DHT22;8967;47.984;7.842;2023-05-10T05:28:57;15.00;99.90
17697;DHT22;8967;47.984;7.842;2023-05-10T05:31:26;15.00;99.90
17697;DHT22;8967;47.984;7.842;2023-05-10T05:33:53;15.00;99.90
17697;DHT22;8967;47.984;7.842;2023-05-10T05:36:20;15.00;99.90
17697;DHT22;8967;47.984;7.842;2023-05-10T05:38:48;15.00;99.90
17697;DHT22;8967;47.984;7.842;2023-05-10T05:41:14;15.00;99.90
17697;DHT22;8967;47.984;7.842;2023-05-10T05:43:41;15.00;99.90
17697;DHT22;8967;47.984;7.842;2023-05-10T05:46:10;15.00;99.90
17697;DHT22;8967;47.984;7.842;2023-05-10T05:48:37;15.00;99.90
17697;DHT22;8967;47.984;7.842;2023-05-10T05:51:03;15.00;99.90
17697;DHT22;8967;47.984;7.842;2023-05-10T05:53:30;15.00;99.90
17697;DHT22;8967;47.984;7.842;2023-05-10T05:55:58;15.00;99.90
17697;DHT22;8967;47.984;7.842;2023-05-10T05:58:25;15.00;99.90
17697;DHT22;8967;47.984;7.842;2023-05-10T06:00:52;15.00;99.90
17697;DHT22;8967;47.984;7.842;2023-05-10T06:03:20;15.00;99.90
17697;DHT22;8967;47.984;7.842;2023-05-10T06:05:50;15.00;99.90
17697;DHT22;8967;47.984;7.842;2023-05-10T06:08:17;15.00;99.90
17697;DHT22;8967;47.984;7.842;2023-05-10T06:10:43;15.00;99.90
17697;DHT22;8967;47.984;7.842;2023-05-10T06:13:10;15.00;99.90
17697;DHT22;8967;47.984;7.842;2023-05-10T06:15:37;15.00;99.90
17697;DHT22;8967;47.984;7.842;2023-05-10T06:18:04;15.00;99.90
17697;DHT22;8967;47.984;7.842;2023-05-10T06:20:33;15.00;99.90
17697;DHT22;8967;47.984;7.842;2023-05-10T06:23:00;14.90;99.90
17697;DHT22;8967;47.984;7.842;2023-05-10T06:25:26;14.90;99.90
17697;DHT22;8967;47.984;7.842;2023-05-10T06:27:53;14.90;99.90
17697;DHT22;8967;47.984;7.842;2023-05-10T06:30:24;14.90;99.90
17697;DHT22;8967;47.984;7.842;2023-05-10T06:32:55;14.90;99.90
17697;DHT22;8967;47.984;7.842;2023-05-10T06:35:23;14.90;99.90
17697;DHT22;8967;47.984;7.842;2023-05-10T06:37:51;14.90;99.90
17697;DHT22;8967;47.984;7.842;2023-05-10T06:40:20;14.90;99.90
17697;DHT22;8967;47.984;7.842;2023-05-10T06:42:49;14.90;99.90
17697;DHT22;8967;47.984;7.842;2023-05-10T06:45:17;14.90;99.90
17697;DHT22;8967;47.984;7.842;2023-05-10T06:47:46;14.90;99.90
17697;DHT22;8967;47.984;7.842;2023-05-10T06:50:13;14.90;99.90
17697;DHT22;8967;47.984;7.842;2023-05-10T06:52:42;14.90;99.90
17697;DHT22;8967;47.984;7.842;2023-05-10T06:55:10;15.00;99.90
17697;DHT22;8967;47.984;7.842;2023-05-10T06:57:37;15.00;99.90
17697;DHT22;8967;47.984;7.842;2023-05-10T07:00:07;15.00;99.90
17697;DHT22;8967;47.984;7.842;2023-05-10T07:02:35;15.00;99.90
17697;DHT22;8967;47.984;7.842;2023-05-10T07:05:02;15.00;99.90
17697;DHT22;8967;47.984;7.842;2023-05-10T07:07:29;15.00;99.90
17697;DHT22;8967;47.984;7.842;2023-05-10T07:09:59;15.00;99.90
17697;DHT22;8967;47.984;7.842;2023-05-10T07:12:27;15.10;99.90
17697;DHT22;8967;47.984;7.842;2023-05-10T07:14:56;15.10;99.90
17697;DHT22;8967;47.984;7.842;2023-05-10T07:17:23;15.10;99.90
17697;DHT22;8967;47.984;7.842;2023-05-10T07:19:50;15.10;99.90
17697;DHT22;8967;47.984;7.842;2023-05-10T07:22:17;15.20;99.90
17697;DHT22;8967;47.984;7.842;2023-05-10T07:24:44;15.20;99.90
17697;DHT22;8967;47.984;7.842;2023-05-10T07:27:11;15.20;99.90
17697;DHT22;8967;47.984;7.842;2023-05-10T07:29:39;15.20;99.90
17697;DHT22;8967;47.984;7.842;2023-05-10T07:32:06;15.30;99.90
17697;DHT22;8967;47.984;7.842;2023-05-10T07:34:35;15.30;99.90
17697;DHT22;8967;47.984;7.842;2023-05-10T07:37:02;15.30;99.90
17697;DHT22;8967;47.984;7.842;2023-05-10T07:39:29;15.30;99.90
17697;DHT22;8967;47.984;7.842;2023-05-10T07:41:56;15.30;99.90
17697;DHT22;8967;47.984;7.842;2023-05-10T07:44:23;15.30;99.90
17697;DHT22;8967;47.984;7.842;2023-05-10T07:46:51;15.30;99.90
17697;DHT22;8967;47.984;7.842;2023-05-10T07:49:18;15.30;99.90
17697;DHT22;8967;47.984;7.842;2023-05-10T07:51:45;15.30;99.90
17697;DHT22;8967;47.984;7.842;2023-05-10T07:54:12;15.40;99.90
17697;DHT22;8967;47.984;7.842;2023-05-10T07:56:40;15.40;99.90
17697;DHT22;8967;47.984;7.842;2023-05-10T07:59:15;15.40;99.90
17697;DHT22;8967;47.984;7.842;2023-05-10T08:01:42;15.50;99.90
17697;DHT22;8967;47.984;7.842;2023-05-10T08:04:10;15.50;99.90
17697;DHT22;8967;47.984;7.842;2023-05-10T08:06:38;15.50;99.90
17697;DHT22;8967;47.984;7.842;2023-05-10T08:09:05;15.60;99.90
17697;DHT22;8967;47.984;7.842;2023-05-10T08:11:32;15.60;99.90
17697;DHT22;8967;47.984;7.842;2023-05-10T08:13:59;15.60;99.90
17697;DHT22;8967;47.984;7.842;2023-05-10T08:16:26;15.70;99.90
17697;DHT22;8967;47.984;7.842;2023-05-10T08:18:53;15.70;99.90
17697;DHT22;8967;47.984;7.842;2023-05-10T08:21:24;15.70;99.90
17697;DHT22;8967;47.984;7.842;2023-05-10T08:23:51;15.80;99.90
17697;DHT22;8967;47.984;7.842;2023-05-10T08:26:18;15.80;99.90
17697;DHT22;8967;47.984;7.842;2023-05-10T08:28:46;15.90;99.90
17697;DHT22;8967;47.984;7.842;2023-05-10T08:31:13;16.00;99.90
17697;DHT22;8967;47.984;7.842;2023-05-10T08:33:40;16.10;99.90
17697;DHT22;8967;47.984;7.842;2023-05-10T08:36:07;16.10;99.90
17697;DHT22;8967;47.984;7.842;2023-05-10T08:38:38;16.20;99.90
17697;DHT22;8967;47.984;7.842;2023-05-10T08:41:05;16.20;99.90
17697;DHT22;8967;47.984;7.842;2023-05-10T08:43:32;16.30;99.90
17697;DHT22;8967;47.984;7.842;2023-05-10T08:46:02;16.30;99.90
17697;DHT22;8967;47.984;7.842;2023-05-10T08:48:31;16.40;99.90
17697;DHT22;8967;47.984;7.842;2023-05-10T08:51:02;16.40;99.90
17697;DHT22;8967;47.984;7.842;2023-05-10T08:53:30;16.40;99.90
17697;DHT22;8967;47.984;7.842;2023-05-10T08:56:01;16.50;99.90
17697;DHT22;8967;47.984;7.842;2023-05-10T08:58:28;16.50;99.90
17697;DHT22;8967;47.984;7.842;2023-05-10T09:00:57;16.60;99.90
17697;DHT22;8967;47.984;7.842;2023-05-10T09:03:24;16.60;99.90
17697;DHT22;8967;47.984;7.842;2023-05-10T09:05:52;16.70;99.90
17697;DHT22;8967;47.984;7.842;2023-05-10T09:08:19;16.70;99.90
17697;DHT22;8967;47.984;7.842;2023-05-10T09:10:49;16.80;99.90
17697;DHT22;8967;47.984;7.842;2023-05-10T09:13:17;16.80;99.90
17697;DHT22;8967;47.984;7.842;2023-05-10T09:15:45;16.80;99.90
17697;DHT22;8967;47.984;7.842;2023-05-10T09:18:12;16.90;99.90
17697;DHT22;8967;47.984;7.842;2023-05-10T09:20:40;16.90;99.90
17697;DHT22;8967;47.984;7.842;2023-05-10T09:23:07;16.90;99.90
17697;DHT22;8967;47.984;7.842;2023-05-10T09:25:34;17.00;99.90
17697;DHT22;8967;47.984;7.842;2023-05-10T09:28:01;17.00;99.90
17697;DHT22;8967;47.984;7.842;2023-05-10T09:30:30;17.00;99.90
17697;DHT22;8967;47.984;7.842;2023-05-10T09:32:59;17.00;99.90
17697;DHT22;8967;47.984;7.842;2023-05-10T09:35:30;17.10;99.90
17697;DHT22;8967;47.984;7.842;2023-05-10T09:37:59;17.10;99.90
17697;DHT22;8967;47.984;7.842;2023-05-10T09:40:28;17.10;99.90
17697;DHT22;8967;47.984;7.842;2023-05-10T09:42:56;17.10;99.90
17697;DHT22;8967;47.984;7.842;2023-05-10T09:45:24;17.10;99.90
17697;DHT22;8967;47.984;7.842;2023-05-10T09:47:55;17.20;99.90
17697;DHT22;8967;47.984;7.842;2023-05-10T09:50:22;17.20;99.90
17697;DHT22;8967;47.984;7.842;2023-05-10T09:52:50;17.20;99.90
17697;DHT22;8967;47.984;7.842;2023-05-10T09:55:18;17.20;99.90
17697;DHT22;8967;47.984;7.842;2023-05-10T09:57:46;17.30;99.90
17697;DHT22;8967;47.984;7.842;2023-05-10T10:00:17;17.30;99.90
17697;DHT22;8967;47.984;7.842;2023-05-10T10:02:46;17.40;99.90
17697;DHT22;8967;47.984;7.842;2023-05-10T10:05:14;17.40;99.90
17697;DHT22;8967;47.984;7.842;2023-05-10T10:07:44;17.40;99.80
17697;DHT22;8967;47.984;7.842;2023-05-10T10:10:11;17.40;99.90
17697;DHT22;8967;47.984;7.842;2023-05-10T10:12:41;17.50;99.50
17697;DHT22;8967;47.984;7.842;2023-05-10T10:15:09;17.50;98.70
17697;DHT22;8967;47.984;7.842;2023-05-10T10:17:36;17.40;98.20
17697;DHT22;8967;47.984;7.842;2023-05-10T10:20:05;17.40;97.90
17697;DHT22;8967;47.984;7.842;2023-05-10T10:22:36;17.40;97.40
17697;DHT22;8967;47.984;7.842;2023-05-10T10:25:05;17.40;97.10
17697;DHT22;8967;47.984;7.842;2023-05-10T10:27:40;17.50;97.00
17697;DHT22;8967;47.984;7.842;2023-05-10T10:30:20;17.40;96.40
17697;DHT22;8967;47.984;7.842;2023-05-10T10:33:04;17.40;96.20
17697;DHT22;8967;47.984;7.842;2023-05-10T10:35:35;17.40;96.00
17697;DHT22;8967;47.984;7.842;2023-05-10T10:38:08;17.40;95.60
17697;DHT22;8967;47.984;7.842;2023-05-10T10:40:35;17.40;95.20
17697;DHT22;8967;47.984;7.842;2023-05-10T10:43:23;17.30;94.90
17697;DHT22;8967;47.984;7.842;2023-05-10T10:46:14;17.30;94.40
17697;DHT22;8967;47.984;7.842;2023-05-10T10:48:48;17.30;94.50
17697;DHT22;8967;47.984;7.842;2023-05-10T10:51:15;17.30;94.60
17697;DHT22;8967;47.984;7.842;2023-05-10T10:53:43;17.30;94.60
17697;DHT22;8967;47.984;7.842;2023-05-10T10:56:13;17.30;94.50
17697;DHT22;8967;47.984;7.842;2023-05-10T10:58:49;17.30;94.80
17697;DHT22;8967;47.984;7.842;2023-05-10T11:01:17;17.30;94.50
17697;DHT22;8967;47.984;7.842;2023-05-10T11:04:16;17.30;94.60
17697;DHT22;8967;47.984;7.842;2023-05-10T11:06:43;17.40;94.70
17697;DHT22;8967;47.984;7.842;2023-05-10T11:09:12;17.50;94.70
17697;DHT22;8967;47.984;7.842;2023-05-10T11:11:49;17.50;94.40
17697;DHT22;8967;47.984;7.842;2023-05-10T11:14:19;17.50;94.00
17697;DHT22;8967;47.984;7.842;2023-05-10T11:16:46;17.50;93.70
17697;DHT22;8967;47.984;7.842;2023-05-10T11:19:15;17.60;93.00
17697;DHT22;8967;47.984;7.842;2023-05-10T11:21:46;17.60;92.70
17697;DHT22;8967;47.984;7.842;2023-05-10T11:24:29;17.60;92.80
17697;DHT22;8967;47.984;7.842;2023-05-10T11:26:59;17.60;93.00
17697;DHT22;8967;47.984;7.842;2023-05-10T11:29:26;17.60;93.00
17697;DHT22;8967;47.984;7.842;2023-05-10T11:31:56;17.60;92.90
17697;DHT22;8967;47.984;7.842;2023-05-10T11:34:25;17.50;92.80
17697;DHT22;8967;47.984;7.842;2023-05-10T11:36:52;17.50;92.40
17697;DHT22;8967;47.984;7.842;2023-05-10T11:39:20;17.50;92.80
17697;DHT22;8967;47.984;7.842;2023-05-10T11:41:49;17.50;92.60
17697;DHT22;8967;47.984;7.842;2023-05-10T11:44:16;17.40;92.60
17697;DHT22;8967;47.984;7.842;2023-05-10T11:46:43;17.40;92.40
17697;DHT22;8967;47.984;7.842;2023-05-10T11:49:10;17.40;92.00
17697;DHT22;8967;47.984;7.842;2023-05-10T11:51:39;17.40;91.90
17697;DHT22;8967;47.984;7.842;2023-05-10T11:54:09;17.40;91.70
17697;DHT22;8967;47.984;7.842;2023-05-10T11:56:36;17.40;91.60
17697;DHT22;8967;47.984;7.842;2023-05-10T11:59:04;17.30;91.10
17697;DHT22;8967;47.984;7.842;2023-05-10T12:01:32;17.30;91.10
17697;DHT22;8967;47.984;7.842;2023-05-10T12:03:59;17.30;91.40
17697;DHT22;8967;47.984;7.842;2023-05-10T12:06:28;17.30;91.60
17697;DHT22;8967;47.984;7.842;2023-05-10T12:08:57;17.30;91.70
17697;DHT22;8967;47.984;7.842;2023-05-10T12:11:25;17.30;91.60
17697;DHT22;8967;47.984;7.842;2023-05-10T12:13:52;17.30;91.60
17697;DHT22;8967;47.984;7.842;2023-05-10T12:16:22;17.30;91.70
17697;DHT22;8967;47.984;7.842;2023-05-10T12:18:50;17.30;91.00
17697;DHT22;8967;47.984;7.842;2023-05-10T12:21:18;17.30;90.10
17697;DHT22;8967;47.984;7.842;2023-05-10T12:23:46;17.30;90.20
17697;DHT22;8967;47.984;7.842;2023-05-10T12:26:13;17.30;90.20
17697;DHT22;8967;47.984;7.842;2023-05-10T12:28:40;17.30;89.90
17697;DHT22;8967;47.984;7.842;2023-05-10T12:31:07;17.20;89.10
17697;DHT22;8967;47.984;7.842;2023-05-10T12:33:41;17.20;89.50
17697;DHT22;8967;47.984;7.842;2023-05-10T12:36:09;17.20;89.60
17697;DHT22;8967;47.984;7.842;2023-05-10T12:38:38;17.20;90.10
17697;DHT22;8967;47.984;7.842;2023-05-10T12:41:06;17.20;89.20
17697;DHT22;8967;47.984;7.842;2023-05-10T12:43:34;17.20;89.40
17697;DHT22;8967;47.984;7.842;2023-05-10T12:46:05;17.20;90.60
17697;DHT22;8967;47.984;7.842;2023-05-10T12:48:32;17.10;91.30
17697;DHT22;8967;47.984;7.842;2023-05-10T12:51:04;17.10;92.50
17697;DHT22;8967;47.984;7.842;2023-05-10T12:53:37;17.10;92.50
17697;DHT22;8967;47.984;7.842;2023-05-10T12:56:04;17.00;92.50
17697;DHT22;8967;47.984;7.842;2023-05-10T12:58:31;17.00;92.90
17697;DHT22;8967;47.984;7.842;2023-05-10T13:00:59;16.90;93.60
17697;DHT22;8967;47.984;7.842;2023-05-10T13:03:26;16.90;93.60
17697;DHT22;8967;47.984;7.842;2023-05-10T13:05:55;16.90;93.50
17697;DHT22;8967;47.984;7.842;2023-05-10T13:08:23;16.90;93.30
17697;DHT22;8967;47.984;7.842;2023-05-10T13:10:50;16.90;93.30
17697;DHT22;8967;47.984;7.842;2023-05-10T13:13:17;16.90;93.60
17697;DHT22;8967;47.984;7.842;2023-05-10T13:15:44;16.90;93.80
17697;DHT22;8967;47.984;7.842;2023-05-10T13:18:11;16.90;94.10
17697;DHT22;8967;47.984;7.842;2023-05-10T13:20:38;16.90;93.90
17697;DHT22;8967;47.984;7.842;2023-05-10T13:23:05;16.90;93.90
17697;DHT22;8967;47.984;7.842;2023-05-10T13:25:33;16.90;93.90
17697;DHT22;8967;47.984;7.842;2023-05-10T13:28:01;16.90;93.90
17697;DHT22;8967;47.984;7.842;2023-05-10T13:30:28;16.90;93.70
17697;DHT22;8967;47.984;7.842;2023-05-10T13:32:55;16.90;94.10
17697;DHT22;8967;47.984;7.842;2023-05-10T13:35:22;17.00;94.90
17697;DHT22;8967;47.984;7.842;2023-05-10T13:37:49;17.00;95.30
17697;DHT22;8967;47.984;7.842;2023-05-10T13:40:16;17.00;95.70
17697;DHT22;8967;47.984;7.842;2023-05-10T13:42:44;17.00;95.70
17697;DHT22;8967;47.984;7.842;2023-05-10T13:45:12;17.00;95.70
17697;DHT22;8967;47.984;7.842;2023-05-10T13:47:38;17.00;95.00
17697;DHT22;8967;47.984;7.842;2023-05-10T13:50:06;17.00;94.90
17697;DHT22;8967;47.984;7.842;2023-05-10T13:52:33;17.00;95.30
17697;DHT22;8967;47.984;7.842;2023-05-10T13:55:00;17.00;95.30
17697;DHT22;8967;47.984;7.842;2023-05-10T13:57:27;17.00;94.90
17697;DHT22;8967;47.984;7.842;2023-05-10T13:59:57;17.00;93.80
17697;DHT22;8967;47.984;7.842;2023-05-10T14:02:26;17.00;93.80
17697;DHT22;8967;47.984;7.842;2023-05-10T14:04:53;17.00;94.00
17697;DHT22;8967;47.984;7.842;2023-05-10T14:07:20;17.00;93.90
17697;DHT22;8967;47.984;7.842;2023-05-10T14:09:47;17.00;93.20
17697;DHT22;8967;47.984;7.842;2023-05-10T14:12:14;17.00;93.10
17697;DHT22;8967;47.984;7.842;2023-05-10T14:14:40;17.10;93.60
17697;DHT22;8967;47.984;7.842;2023-05-10T14:17:09;17.10;93.40
17697;DHT22;8967;47.984;7.842;2023-05-10T14:19:35;17.20;93.20
17697;DHT22;8967;47.984;7.842;2023-05-10T14:22:02;17.20;93.20
17697;DHT22;8967;47.984;7.842;2023-05-10T14:24:29;17.20;92.60
17697;DHT22;8967;47.984;7.842;2023-05-10T14:26:56;17.30;92.10
17697;DHT22;8967;47.984;7.842;2023-05-10T14:29:23;17.30;92.00
17697;DHT22;8967;47.984;7.842;2023-05-10T14:31:52;17.30;91.70
17697;DHT22;8967;47.984;7.842;2023-05-10T14:34:20;17.30;91.90
17697;DHT22;8967;47.984;7.842;2023-05-10T14:36:50;17.30;92.00
17697;DHT22;8967;47.984;7.842;2023-05-10T14:39:17;17.30;91.60
17697;DHT22;8967;47.984;7.842;2023-05-10T14:41:43;17.30;91.50
17697;DHT22;8967;47.984;7.842;2023-05-10T14:44:11;17.30;91.30
17697;DHT22;8967;47.984;7.842;2023-05-10T14:46:38;17.30;91.50
17697;DHT22;8967;47.984;7.842;2023-05-10T14:49:05;17.20;91.40
17697;DHT22;8967;47.984;7.842;2023-05-10T14:51:34;17.20;90.90
17697;DHT22;8967;47.984;7.842;2023-05-10T14:54:02;17.20;90.70
17697;DHT22;8967;47.984;7.842;2023-05-10T14:56:29;17.20;90.40
17697;DHT22;8967;47.984;7.842;2023-05-10T14:58:56;17.20;90.60
17697;DHT22;8967;47.984;7.842;2023-05-10T15:01:23;17.20;90.70
17697;DHT22;8967;47.984;7.842;2023-05-10T15:03:50;17.20;90.90
17697;DHT22;8967;47.984;7.842;2023-05-10T15:06:17;17.20;90.80
17697;DHT22;8967;47.984;7.842;2023-05-10T15:08:50;17.20;91.10
17697;DHT22;8967;47.984;7.842;2023-05-10T15:11:19;17.20;91.30
17697;DHT22;8967;47.984;7.842;2023-05-10T15:13:47;17.20;91.30
17697;DHT22;8967;47.984;7.842;2023-05-10T15:16:13;17.20;91.30
17697;DHT22;8967;47.984;7.842;2023-05-10T15:18:40;17.20;91.50
17697;DHT22;8967;47.984;7.842;2023-05-10T15:21:07;17.20;91.30
17697;DHT22;8967;47.984;7.842;2023-05-10T15:23:34;17.20;91.20
17697;DHT22;8967;47.984;7.842;2023-05-10T15:26:02;17.30;91.30
17697;DHT22;8967;47.984;7.842;2023-05-10T15:28:29;17.30;91.50
17697;DHT22;8967;47.984;7.842;2023-05-10T15:30:56;17.30;91.50
17697;DHT22;8967;47.984;7.842;2023-05-10T15:33:25;17.30;91.40
17697;DHT22;8967;47.984;7.842;2023-05-10T15:35:52;17.30;91.80
17697;DHT22;8967;47.984;7.842;2023-05-10T15:38:20;17.30;92.40
17697;DHT22;8967;47.984;7.842;2023-05-10T15:40:47;17.40;92.60
17697;DHT22;8967;47.984;7.842;2023-05-10T15:43:15;17.40;91.70
17697;DHT22;8967;47.984;7.842;2023-05-10T15:45:42;17.40;91.40
17697;DHT22;8967;47.984;7.842;2023-05-10T15:48:09;17.40;91.30
17697;DHT22;8967;47.984;7.842;2023-05-10T15:50:36;17.40;91.30
17697;DHT22;8967;47.984;7.842;2023-05-10T15:53:05;17.40;91.20
17697;DHT22;8967;47.984;7.842;2023-05-10T15:55:32;17.40;91.30
17697;DHT22;8967;47.984;7.842;2023-05-10T15:57:59;17.40;91.40
17697;DHT22;8967;47.984;7.842;2023-05-10T16:00:27;17.50;91.40